sensor_id;sensor_type;location;lat;lon;timestamp;temperature;humidity
13375;DHT22;6756;51.354;15.754;2023-01-30T00:03:59;-0.20;1.00
13375;DHT22;6756;51.354;15.754;2023-01-30T00:08:00;-0.20;1.00
13375;DHT22;6756;51.354;15.754;2023-01-30T00:12:01;-0.20;1.00
13375;DHT22;6756;51.354;15.754;2023-01-30T00:16:02;-0.10;1.00
13375;DHT22;6756;51.354;15.754;2023-01-30T00:20:03;-0.20;99.90
13375;DHT22;6756;51.354;15.754;2023-01-30T00:24:04;-0.20;99.90
13375;DHT22;6756;51.354;15.754;2023-01-30T00:28:05;-0.20;99.90
13375;DHT22;6756;51.354;15.754;2023-01-30T00:32:06;-0.20;99.90
13375;DHT22;6756;51.354;15.754;2023-01-30T00:36:08;-0.20;99.90
13375;DHT22;6756;51.354;15.754;2023-01-30T00:40:09;-0.20;99.90
13375;DHT22;6756;51.354;15.754;2023-01-30T00:44:10;-0.20;99.90
13375;DHT22;6756;51.354;15.754;2023-01-30T00:48:30;-0.20;99.90
13375;DHT22;6756;51.354;15.754;2023-01-30T00:52:31;-0.10;99.90
13375;DHT22;6756;51.354;15.754;2023-01-30T00:56:32;-0.20;99.90
13375;DHT22;6756;51.354;15.754;2023-01-30T01:00:33;-0.20;99.90
13375;DHT22;6756;51.354;15.754;2023-01-30T01:04:33;-0.30;99.90
13375;DHT22;6756;51.354;15.754;2023-01-30T01:08:42;-0.30;99.90
13375;DHT22;6756;51.354;15.754;2023-01-30T01:12:43;-0.30;99.90
13375;DHT22;6756;51.354;15.754;2023-01-30T01:16:44;-0.30;99.90
13375;DHT22;6756;51.354;15.754;2023-01-30T01:20:45;-0.40;99.90
13375;DHT22;6756;51.354;15.754;2023-01-30T01:24:46;-0.40;99.90
13375;DHT22;6756;51.354;15.754;2023-01-30T01:28:46;-0.40;99.90
13375;DHT22;6756;51.354;15.754;2023-01-30T01:32:47;-0.50;99.90
13375;DHT22;6756;51.354;15.754;2023-01-30T01:36:48;-0.50;99.90
13375;DHT22;6756;51.354;15.754;2023-01-30T01:40:49;-0.60;99.90
13375;DHT22;6756;51.354;15.754;2023-01-30T01:45:15;-0.70;99.90
13375;DHT22;6756;51.354;15.754;2023-01-30T01:49:21;-0.90;99.90
13375;DHT22;6756;51.354;15.754;2023-01-30T01:53:26;-0.90;99.90
13375;DHT22;6756;51.354;15.754;2023-01-30T01:57:32;-1.00;99.90
13375;DHT22;6756;51.354;15.754;2023-01-30T02:01:35;-1.00;99.90
13375;DHT22;6756;51.354;15.754;2023-01-30T02:05:41;-1.00;99.90
13375;DHT22;6756;51.354;15.754;2023-01-30T02:09:43;-1.00;99.90
13375;DHT22;6756;51.354;15.754;2023-01-30T02:13:48;-1.00;99.90
13375;DHT22;6756;51.354;15.754;2023-01-30T02:17:50;-1.00;99.90
13375;DHT22;6756;51.354;15.754;2023-01-30T02:34:54;-0.80;99.90
13375;DHT22;6756;51.354;15.754;2023-01-30T02:39:10;-0.80;99.90
13375;DHT22;6756;51.354;15.754;2023-01-30T02:48:21;-0.70;99.90
13375;DHT22;6756;51.354;15.754;2023-01-30T02:52:23;-0.70;99.90
13375;DHT22;6756;51.354;15.754;2023-01-30T02:56:24;-0.60;99.90
13375;DHT22;6756;51.354;15.754;2023-01-30T03:09:24;-0.50;99.90
13375;DHT22;6756;51.354;15.754;2023-01-30T03:17:39;-0.50;99.90
13375;DHT22;6756;51.354;15.754;2023-01-30T03:21:43;-0.40;99.90
13375;DHT22;6756;51.354;15.754;2023-01-30T03:25:45;-0.30;99.90
13375;DHT22;6756;51.354;15.754;2023-01-30T03:29:47;-0.30;99.90
13375;DHT22;6756;51.354;15.754;2023-01-30T03:33:48;-0.20;99.90
13375;DHT22;6756;51.354;15.754;2023-01-30T03:37:48;-0.20;99.90
13375;DHT22;6756;51.354;15.754;2023-01-30T03:41:50;-0.20;99.90
13375;DHT22;6756;51.354;15.754;2023-01-30T03:45:51;-0.20;99.90
13375;DHT22;6756;51.354;15.754;2023-01-30T03:49:52;-0.10;99.90
13375;DHT22;6756;51.354;15.754;2023-01-30T03:53:52;0.00;99.90
13375;DHT22;6756;51.354;15.754;2023-01-30T03:57:55;0.00;99.90
13375;DHT22;6756;51.354;15.754;2023-01-30T04:01:56;0.00;99.90
13375;DHT22;6756;51.354;15.754;2023-01-30T04:05:57;0.00;99.90
13375;DHT22;6756;51.354;15.754;2023-01-30T04:09:58;0.00;99.90
13375;DHT22;6756;51.354;15.754;2023-01-30T04:13:58;0.00;99.90
13375;DHT22;6756;51.354;15.754;2023-01-30T04:17:59;0.00;99.90
13375;DHT22;6756;51.354;15.754;2023-01-30T04:22:00;0.00;99.90
13375;DHT22;6756;51.354;15.754;2023-01-30T04:26:01;0.00;99.90
13375;DHT22;6756;51.354;15.754;2023-01-30T04:30:03;0.10;99.90
13375;DHT22;6756;51.354;15.754;2023-01-30T04:34:04;0.10;99.90
13375;DHT22;6756;51.354;15.754;2023-01-30T04:38:04;0.10;99.90
13375;DHT22;6756;51.354;15.754;2023-01-30T04:42:05;0.20;1.00
13375;DHT22;6756;51.354;15.754;2023-01-30T04:46:06;0.20;1.00
13375;DHT22;6756;51.354;15.754;2023-01-30T04:50:07;0.30;1.00
13375;DHT22;6756;51.354;15.754;2023-01-30T04:54:08;0.30;1.00
13375;DHT22;6756;51.354;15.754;2023-01-30T04:58:09;0.40;1.00
13375;DHT22;6756;51.354;15.754;2023-01-30T05:02:10;0.40;1.00
13375;DHT22;6756;51.354;15.754;2023-01-30T05:06:10;0.40;1.00
13375;DHT22;6756;51.354;15.754;2023-01-30T05:10:11;0.50;1.00
13375;DHT22;6756;51.354;15.754;2023-01-30T05:14:12;0.50;1.00
13375;DHT22;6756;51.354;15.754;2023-01-30T05:18:13;0.50;1.00
13375;DHT22;6756;51.354;15.754;2023-01-30T05:22:13;0.60;1.00
13375;DHT22;6756;51.354;15.754;2023-01-30T05:26:14;0.60;1.00
13375;DHT22;6756;51.354;15.754;2023-01-30T05:30:15;0.60;1.00
13375;DHT22;6756;51.354;15.754;2023-01-30T05:34:16;0.70;1.00
13375;DHT22;6756;51.354;15.754;2023-01-30T05:38:17;0.70;1.00
13375;DHT22;6756;51.354;15.754;2023-01-30T05:42:18;0.60;1.00
13375;DHT22;6756;51.354;15.754;2023-01-30T05:46:19;0.70;1.00
13375;DHT22;6756;51.354;15.754;2023-01-30T05:50:19;0.70;1.00
13375;DHT22;6756;51.354;15.754;2023-01-30T05:54:20;0.70;1.00
13375;DHT22;6756;51.354;15.754;2023-01-30T05:58:21;0.70;1.00
13375;DHT22;6756;51.354;15.754;2023-01-30T06:02:22;0.70;1.00
13375;DHT22;6756;51.354;15.754;2023-01-30T06:06:24;0.70;34.40
13375;DHT22;6756;51.354;15.754;2023-01-30T06:10:24;0.70;99.90
13375;DHT22;6756;51.354;15.754;2023-01-30T06:14:25;0.60;99.90
13375;DHT22;6756;51.354;15.754;2023-01-30T06:18:26;0.60;99.90
13375;DHT22;6756;51.354;15.754;2023-01-30T06:22:27;0.60;1.00
13375;DHT22;6756;51.354;15.754;2023-01-30T06:26:28;0.60;1.00
13375;DHT22;6756;51.354;15.754;2023-01-30T06:30:29;0.60;57.20
13375;DHT22;6756;51.354;15.754;2023-01-30T06:34:30;0.60;99.90
13375;DHT22;6756;51.354;15.754;2023-01-30T06:38:30;0.60;99.90
13375;DHT22;6756;51.354;15.754;2023-01-30T06:42:31;0.50;98.20
13375;DHT22;6756;51.354;15.754;2023-01-30T06:46:32;0.50;1.00
13375;DHT22;6756;51.354;15.754;2023-01-30T06:50:33;0.40;1.00
13375;DHT22;6756;51.354;15.754;2023-01-30T06:54:34;0.40;99.90
13375;DHT22;6756;51.354;15.754;2023-01-30T06:58:35;0.50;99.90
13375;DHT22;6756;51.354;15.754;2023-01-30T07:02:36;0.60;99.90
13375;DHT22;6756;51.354;15.754;2023-01-30T07:06:36;0.60;1.00
13375;DHT22;6756;51.354;15.754;2023-01-30T07:10:37;0.60;99.90
13375;DHT22;6756;51.354;15.754;2023-01-30T07:14:38;0.60;1.00
13375;DHT22;6756;51.354;15.754;2023-01-30T07:18:39;0.60;1.00
13375;DHT22;6756;51.354;15.754;2023-01-30T07:22:40;0.60;99.90
13375;DHT22;6756;51.354;15.754;2023-01-30T07:26:41;0.60;99.90
13375;DHT22;6756;51.354;15.754;2023-01-30T07:30:42;0.80;1.00
13375;DHT22;6756;51.354;15.754;2023-01-30T07:34:43;0.90;1.00
13375;DHT22;6756;51.354;15.754;2023-01-30T07:38:43;1.00;99.90
13375;DHT22;6756;51.354;15.754;2023-01-30T07:43:01;1.10;4.20
13375;DHT22;6756;51.354;15.754;2023-01-30T07:47:03;1.10;40.40
13375;DHT22;6756;51.354;15.754;2023-01-30T07:51:04;1.00;1.00
13375;DHT22;6756;51.354;15.754;2023-01-30T07:55:05;0.90;99.90
13375;DHT22;6756;51.354;15.754;2023-01-30T07:59:06;0.90;1.00
13375;DHT22;6756;51.354;15.754;2023-01-30T08:03:14;0.90;99.90
13375;DHT22;6756;51.354;15.754;2023-01-30T08:07:15;0.90;1.00
13375;DHT22;6756;51.354;15.754;2023-01-30T08:11:16;1.00;99.90
13375;DHT22;6756;51.354;15.754;2023-01-30T08:15:17;0.90;1.00
13375;DHT22;6756;51.354;15.754;2023-01-30T08:19:18;0.90;3.00
13375;DHT22;6756;51.354;15.754;2023-01-30T08:23:19;1.00;99.90
13375;DHT22;6756;51.354;15.754;2023-01-30T08:27:20;1.10;99.90
13375;DHT22;6756;51.354;15.754;2023-01-30T08:31:21;1.20;99.90
13375;DHT22;6756;51.354;15.754;2023-01-30T08:35:22;1.30;99.90
13375;DHT22;6756;51.354;15.754;2023-01-30T08:39:23;1.50;1.00
13375;DHT22;6756;51.354;15.754;2023-01-30T08:43:23;1.50;1.00
13375;DHT22;6756;51.354;15.754;2023-01-30T08:47:24;1.40;11.50
13375;DHT22;6756;51.354;15.754;2023-01-30T08:51:25;1.50;1.00
13375;DHT22;6756;51.354;15.754;2023-01-30T08:55:26;1.50;99.90
13375;DHT22;6756;51.354;15.754;2023-01-30T08:59:27;1.50;1.00
13375;DHT22;6756;51.354;15.754;2023-01-30T09:03:27;1.50;1.00
13375;DHT22;6756;51.354;15.754;2023-01-30T09:07:28;1.40;1.00
13375;DHT22;6756;51.354;15.754;2023-01-30T09:11:29;1.30;99.90
13375;DHT22;6756;51.354;15.754;2023-01-30T09:15:31;1.30;1.00
13375;DHT22;6756;51.354;15.754;2023-01-30T09:19:32;1.30;99.90
13375;DHT22;6756;51.354;15.754;2023-01-30T09:23:35;1.30;99.90
13375;DHT22;6756;51.354;15.754;2023-01-30T09:27:36;1.40;99.90
13375;DHT22;6756;51.354;15.754;2023-01-30T09:31:37;1.50;99.90
13375;DHT22;6756;51.354;15.754;2023-01-30T09:35:38;1.40;99.90
13375;DHT22;6756;51.354;15.754;2023-01-30T09:39:39;1.50;99.90
13375;DHT22;6756;51.354;15.754;2023-01-30T09:43:46;1.60;99.90
13375;DHT22;6756;51.354;15.754;2023-01-30T09:48:11;1.60;69.20
13375;DHT22;6756;51.354;15.754;2023-01-30T09:56:40;1.60;99.90
13375;DHT22;6756;51.354;15.754;2023-01-30T10:00:41;1.70;99.90
13375;DHT22;6756;51.354;15.754;2023-01-30T10:04:44;1.70;99.90
13375;DHT22;6756;51.354;15.754;2023-01-30T10:09:16;1.80;99.90
13375;DHT22;6756;51.354;15.754;2023-01-30T10:26:14;2.10;1.00
13375;DHT22;6756;51.354;15.754;2023-01-30T10:30:16;2.10;99.90
13375;DHT22;6756;51.354;15.754;2023-01-30T10:34:24;2.10;59.10
13375;DHT22;6756;51.354;15.754;2023-01-30T10:38:53;2.20;99.90
13375;DHT22;6756;51.354;15.754;2023-01-30T10:43:22;2.30;99.90
13375;DHT22;6756;51.354;15.754;2023-01-30T10:47:47;2.50;27.90
13375;DHT22;6756;51.354;15.754;2023-01-30T10:52:11;2.90;1.00
13375;DHT22;6756;51.354;15.754;2023-01-30T11:00:29;3.30;99.90
13375;DHT22;6756;51.354;15.754;2023-01-30T11:08:35;3.60;92.80
13375;DHT22;6756;51.354;15.754;2023-01-30T11:12:36;3.60;99.90
13375;DHT22;6756;51.354;15.754;2023-01-30T11:16:56;3.50;99.90
13375;DHT22;6756;51.354;15.754;2023-01-30T11:21:07;3.20;82.40
13375;DHT22;6756;51.354;15.754;2023-01-30T11:25:22;2.90;77.80
13375;DHT22;6756;51.354;15.754;2023-01-30T11:29:25;2.90;99.90
13375;DHT22;6756;51.354;15.754;2023-01-30T11:33:36;2.90;99.90
13375;DHT22;6756;51.354;15.754;2023-01-30T11:37:40;3.00;48.20
13375;DHT22;6756;51.354;15.754;2023-01-30T11:45:57;3.00;99.90
13375;DHT22;6756;51.354;15.754;2023-01-30T11:49:59;3.10;99.90
13375;DHT22;6756;51.354;15.754;2023-01-30T11:54:05;3.30;1.00
13375;DHT22;6756;51.354;15.754;2023-01-30T11:58:08;3.30;99.90
13375;DHT22;6756;51.354;15.754;2023-01-30T12:02:29;3.50;99.90
13375;DHT22;6756;51.354;15.754;2023-01-30T12:06:34;3.60;99.90
13375;DHT22;6756;51.354;15.754;2023-01-30T12:10:40;3.60;99.90
13375;DHT22;6756;51.354;15.754;2023-01-30T12:14:45;3.50;99.90
13375;DHT22;6756;51.354;15.754;2023-01-30T12:19:03;3.50;57.90
13375;DHT22;6756;51.354;15.754;2023-01-30T12:31:45;3.10;99.90
13375;DHT22;6756;51.354;15.754;2023-01-30T12:35:56;3.10;99.90
13375;DHT22;6756;51.354;15.754;2023-01-30T12:40:14;3.30;99.90
13375;DHT22;6756;51.354;15.754;2023-01-30T12:44:37;3.40;1.00
13375;DHT22;6756;51.354;15.754;2023-01-30T13:05:44;3.50;99.90
13375;DHT22;6756;51.354;15.754;2023-01-30T13:10:06;3.40;1.00
13375;DHT22;6756;51.354;15.754;2023-01-30T13:18:50;3.10;1.00
13375;DHT22;6756;51.354;15.754;2023-01-30T13:26:54;3.40;1.00
13375;DHT22;6756;51.354;15.754;2023-01-30T13:30:57;3.80;99.90
13375;DHT22;6756;51.354;15.754;2023-01-30T13:35:01;3.90;99.90
13375;DHT22;6756;51.354;15.754;2023-01-30T13:39:12;3.80;99.90
13375;DHT22;6756;51.354;15.754;2023-01-30T13:47:47;3.80;1.00
13375;DHT22;6756;51.354;15.754;2023-01-30T13:56:29;3.70;99.90
13375;DHT22;6756;51.354;15.754;2023-01-30T14:00:33;3.70;99.90
13375;DHT22;6756;51.354;15.754;2023-01-30T14:12:48;3.70;99.90
13375;DHT22;6756;51.354;15.754;2023-01-30T14:16:53;3.80;20.80
13375;DHT22;6756;51.354;15.754;2023-01-30T14:21:12;3.80;1.00
13375;DHT22;6756;51.354;15.754;2023-01-30T14:33:49;3.60;17.10
13375;DHT22;6756;51.354;15.754;2023-01-30T14:38:07;3.70;1.00
13375;DHT22;6756;51.354;15.754;2023-01-30T14:42:38;3.60;1.00
13375;DHT22;6756;51.354;15.754;2023-01-30T14:46:41;3.60;1.00
13375;DHT22;6756;51.354;15.754;2023-01-30T14:50:43;3.50;1.00
13375;DHT22;6756;51.354;15.754;2023-01-30T14:54:48;3.40;49.10
13375;DHT22;6756;51.354;15.754;2023-01-30T14:58:57;3.20;99.90
13375;DHT22;6756;51.354;15.754;2023-01-30T15:03:07;3.10;1.00
13375;DHT22;6756;51.354;15.754;2023-01-30T15:07:28;3.20;1.00
13375;DHT22;6756;51.354;15.754;2023-01-30T15:11:31;3.20;1.00
13375;DHT22;6756;51.354;15.754;2023-01-30T15:20:27;3.20;1.00
13375;DHT22;6756;51.354;15.754;2023-01-30T15:33:17;3.10;99.90
13375;DHT22;6756;51.354;15.754;2023-01-30T15:37:36;3.10;99.90
13375;DHT22;6756;51.354;15.754;2023-01-30T15:41:38;3.20;99.90
13375;DHT22;6756;51.354;15.754;2023-01-30T15:50:07;3.30;1.00
13375;DHT22;6756;51.354;15.754;2023-01-30T15:54:10;3.40;1.00
13375;DHT22;6756;51.354;15.754;2023-01-30T15:58:17;3.40;99.90
13375;DHT22;6756;51.354;15.754;2023-01-30T16:02:46;3.50;99.90
13375;DHT22;6756;51.354;15.754;2023-01-30T16:06:47;3.40;99.90
13375;DHT22;6756;51.354;15.754;2023-01-30T16:10:48;3.40;99.90
13375;DHT22;6756;51.354;15.754;2023-01-30T16:14:51;3.30;99.90
13375;DHT22;6756;51.354;15.754;2023-01-30T16:19:02;3.30;1.00
13375;DHT22;6756;51.354;15.754;2023-01-30T16:23:14;3.30;99.90
13375;DHT22;6756;51.354;15.754;2023-01-30T16:27:36;3.40;1.00
13375;DHT22;6756;51.354;15.754;2023-01-30T16:31:39;3.40;99.90
13375;DHT22;6756;51.354;15.754;2023-01-30T16:35:44;3.40;99.90
13375;DHT22;6756;51.354;15.754;2023-01-30T16:40:19;3.40;99.90
13375;DHT22;6756;51.354;15.754;2023-01-30T16:44:29;3.40;1.00
13375;DHT22;6756;51.354;15.754;2023-01-30T16:48:32;3.40;1.00
13375;DHT22;6756;51.354;15.754;2023-01-30T16:52:36;3.40;99.90
13375;DHT22;6756;51.354;15.754;2023-01-30T16:56:45;3.30;1.00
13375;DHT22;6756;51.354;15.754;2023-01-30T17:00:50;3.20;99.90
13375;DHT22;6756;51.354;15.754;2023-01-30T17:04:51;3.10;99.90
13375;DHT22;6756;51.354;15.754;2023-01-30T17:08:54;3.00;99.90
13375;DHT22;6756;51.354;15.754;2023-01-30T17:12:57;2.80;99.90
13375;DHT22;6756;51.354;15.754;2023-01-30T17:17:02;2.70;99.90
13375;DHT22;6756;51.354;15.754;2023-01-30T17:21:03;2.80;1.00
13375;DHT22;6756;51.354;15.754;2023-01-30T17:25:12;2.70;99.90
13375;DHT22;6756;51.354;15.754;2023-01-30T17:29:14;2.60;99.90
13375;DHT22;6756;51.354;15.754;2023-01-30T17:33:15;2.60;99.90
13375;DHT22;6756;51.354;15.754;2023-01-30T17:37:18;2.60;99.90
13375;DHT22;6756;51.354;15.754;2023-01-30T17:41:26;2.70;99.90
13375;DHT22;6756;51.354;15.754;2023-01-30T17:45:29;2.70;99.90
13375;DHT22;6756;51.354;15.754;2023-01-30T17:49:30;2.70;99.90
13375;DHT22;6756;51.354;15.754;2023-01-30T17:53:32;2.80;99.90
13375;DHT22;6756;51.354;15.754;2023-01-30T17:57:32;2.80;99.90
13375;DHT22;6756;51.354;15.754;2023-01-30T18:01:33;2.90;99.90
13375;DHT22;6756;51.354;15.754;2023-01-30T18:05:35;2.90;99.90
13375;DHT22;6756;51.354;15.754;2023-01-30T18:09:36;2.90;1.00
13375;DHT22;6756;51.354;15.754;2023-01-30T18:13:38;2.90;1.00
13375;DHT22;6756;51.354;15.754;2023-01-30T18:17:42;2.80;99.90
13375;DHT22;6756;51.354;15.754;2023-01-30T18:21:44;2.80;99.90
13375;DHT22;6756;51.354;15.754;2023-01-30T18:25:45;2.80;1.00
13375;DHT22;6756;51.354;15.754;2023-01-30T18:29:46;2.80;1.00
13375;DHT22;6756;51.354;15.754;2023-01-30T18:33:46;2.80;99.90
13375;DHT22;6756;51.354;15.754;2023-01-30T18:37:47;2.70;98.00
13375;DHT22;6756;51.354;15.754;2023-01-30T18:41:49;2.80;1.00
13375;DHT22;6756;51.354;15.754;2023-01-30T18:46:04;2.80;53.20
13375;DHT22;6756;51.354;15.754;2023-01-30T18:50:05;2.90;1.00
13375;DHT22;6756;51.354;15.754;2023-01-30T18:54:06;2.90;99.90
13375;DHT22;6756;51.354;15.754;2023-01-30T18:58:08;2.90;99.90
13375;DHT22;6756;51.354;15.754;2023-01-30T19:02:11;2.80;99.90
13375;DHT22;6756;51.354;15.754;2023-01-30T19:06:13;2.70;99.90
13375;DHT22;6756;51.354;15.754;2023-01-30T19:10:15;2.70;1.00
13375;DHT22;6756;51.354;15.754;2023-01-30T19:14:16;2.70;99.90
13375;DHT22;6756;51.354;15.754;2023-01-30T19:18:17;2.70;99.90
13375;DHT22;6756;51.354;15.754;2023-01-30T19:22:18;2.70;99.90
13375;DHT22;6756;51.354;15.754;2023-01-30T19:26:21;2.70;99.90
13375;DHT22;6756;51.354;15.754;2023-01-30T19:30:22;2.70;99.90
13375;DHT22;6756;51.354;15.754;2023-01-30T19:34:24;2.70;99.90
13375;DHT22;6756;51.354;15.754;2023-01-30T19:38:26;2.70;99.90
13375;DHT22;6756;51.354;15.754;2023-01-30T19:42:26;2.70;99.90
13375;DHT22;6756;51.354;15.754;2023-01-30T19:46:28;2.70;99.90
13375;DHT22;6756;51.354;15.754;2023-01-30T19:50:28;2.70;99.90
13375;DHT22;6756;51.354;15.754;2023-01-30T19:54:29;2.70;99.90
13375;DHT22;6756;51.354;15.754;2023-01-30T19:58:30;2.70;99.90
13375;DHT22;6756;51.354;15.754;2023-01-30T20:02:31;2.70;99.90
13375;DHT22;6756;51.354;15.754;2023-01-30T20:06:35;2.70;99.90
13375;DHT22;6756;51.354;15.754;2023-01-30T20:10:36;2.70;99.90
13375;DHT22;6756;51.354;15.754;2023-01-30T20:14:37;2.70;99.90
13375;DHT22;6756;51.354;15.754;2023-01-30T20:18:39;2.70;99.90
13375;DHT22;6756;51.354;15.754;2023-01-30T20:22:40;2.80;99.90
13375;DHT22;6756;51.354;15.754;2023-01-30T20:26:42;2.80;99.90
13375;DHT22;6756;51.354;15.754;2023-01-30T20:30:43;2.90;99.90
13375;DHT22;6756;51.354;15.754;2023-01-30T20:34:44;3.00;99.90
13375;DHT22;6756;51.354;15.754;2023-01-30T20:38:46;3.00;99.90
13375;DHT22;6756;51.354;15.754;2023-01-30T20:42:48;2.90;99.90
13375;DHT22;6756;51.354;15.754;2023-01-30T20:46:49;2.90;99.90
13375;DHT22;6756;51.354;15.754;2023-01-30T20:50:50;2.80;99.90
13375;DHT22;6756;51.354;15.754;2023-01-30T20:54:51;2.90;99.90
13375;DHT22;6756;51.354;15.754;2023-01-30T20:58:52;2.90;99.90
13375;DHT22;6756;51.354;15.754;2023-01-30T21:02:53;3.00;99.90
13375;DHT22;6756;51.354;15.754;2023-01-30T21:06:54;3.00;99.90
13375;DHT22;6756;51.354;15.754;2023-01-30T21:11:09;3.00;99.90
13375;DHT22;6756;51.354;15.754;2023-01-30T21:15:10;3.00;99.90
13375;DHT22;6756;51.354;15.754;2023-01-30T21:19:13;3.10;99.90
13375;DHT22;6756;51.354;15.754;2023-01-30T21:23:15;3.10;99.90
13375;DHT22;6756;51.354;15.754;2023-01-30T21:27:16;3.10;99.90
13375;DHT22;6756;51.354;15.754;2023-01-30T21:31:20;3.10;99.90
13375;DHT22;6756;51.354;15.754;2023-01-30T21:35:21;3.10;79.10
13375;DHT22;6756;51.354;15.754;2023-01-30T21:39:21;3.10;95.80
13375;DHT22;6756;51.354;15.754;2023-01-30T21:43:41;3.10;96.00
13375;DHT22;6756;51.354;15.754;2023-01-30T21:47:41;3.10;99.90
13375;DHT22;6756;51.354;15.754;2023-01-30T21:51:44;3.00;99.90
13375;DHT22;6756;51.354;15.754;2023-01-30T21:55:50;3.00;99.90
13375;DHT22;6756;51.354;15.754;2023-01-30T21:59:51;3.00;99.90
13375;DHT22;6756;51.354;15.754;2023-01-30T22:03:52;3.00;99.90
13375;DHT22;6756;51.354;15.754;2023-01-30T22:07:53;3.00;88.80
13375;DHT22;6756;51.354;15.754;2023-01-30T22:11:54;3.00;1.00
13375;DHT22;6756;51.354;15.754;2023-01-30T22:15:55;3.00;1.00
13375;DHT22;6756;51.354;15.754;2023-01-30T22:19:59;3.00;99.90
13375;DHT22;6756;51.354;15.754;2023-01-30T22:24:01;2.90;99.90
13375;DHT22;6756;51.354;15.754;2023-01-30T22:28:03;2.90;99.90
13375;DHT22;6756;51.354;15.754;2023-01-30T22:32:04;2.90;1.00
13375;DHT22;6756;51.354;15.754;2023-01-30T22:36:06;2.90;99.90
13375;DHT22;6756;51.354;15.754;2023-01-30T22:40:07;2.90;99.90
13375;DHT22;6756;51.354;15.754;2023-01-30T22:44:09;2.90;99.90
13375;DHT22;6756;51.354;15.754;2023-01-30T22:48:10;2.90;1.00
13375;DHT22;6756;51.354;15.754;2023-01-30T22:52:10;3.00;1.00
13375;DHT22;6756;51.354;15.754;2023-01-30T22:56:15;3.00;99.90
13375;DHT22;6756;51.354;15.754;2023-01-30T23:00:16;3.00;99.90
13375;DHT22;6756;51.354;15.754;2023-01-30T23:04:19;2.90;99.90
13375;DHT22;6756;51.354;15.754;2023-01-30T23:08:20;2.90;68.10
13375;DHT22;6756;51.354;15.754;2023-01-30T23:12:21;2.90;99.90
13375;DHT22;6756;51.354;15.754;2023-01-30T23:16:42;2.90;1.00
13375;DHT22;6756;51.354;15.754;2023-01-30T23:20:43;2.90;99.90
13375;DHT22;6756;51.354;15.754;2023-01-30T23:24:44;3.00;4.30
13375;DHT22;6756;51.354;15.754;2023-01-30T23:28:45;3.10;99.90
13375;DHT22;6756;51.354;15.754;2023-01-30T23:32:45;3.10;1.00
13375;DHT22;6756;51.354;15.754;2023-01-30T23:36:46;3.00;1.00
13375;DHT22;6756;51.354;15.754;2023-01-30T23:40:47;3.10;62.10
13375;DHT22;6756;51.354;15.754;2023-01-30T23:44:48;3.00;99.90
13375;DHT22;6756;51.354;15.754;2023-01-30T23:48:57;3.00;1.00
13375;DHT22;6756;51.354;15.754;2023-01-30T23:52:58;2.90;1.00
13375;DHT22;6756;51.354;15.754;2023-01-30T23:56:59;2.80;1.00
